WetterOnline ( https://www.wetteronline.de )

Wetter aktuell Putbus

Aktuelles Wetter: Putbus/Rügen (41m)

6-stündlich | Neueste Meldungen
Ortszeit Temperatur Wetter
Fr, 19.08. 2:00 19.4° C bedeckt
Do, 18.08. 20:00 25.1° C bewölkt
Do, 18.08. 14:00 27.6° C leicht bewölkt
Do, 18.08. 8:00 22.2° C wolkig
Do, 18.08. 2:00 19.5° C wolkenlos
Mi, 17.08. 20:00 23.0° C wolkig
Mi, 17.08. 14:00 27.2° C leicht bewölkt
Mi, 17.08. 8:00 21.6° C wolkenlos
Ortszeit Temperatur Wetter
Fr, 19.08. 4:00 18.7° C Nebel
Fr, 19.08. 3:50 18.7° C Dunst
Fr, 19.08. 3:40 18.6° C Dunst
Fr, 19.08. 3:30 18.4° C Nebel
Fr, 19.08. 3:20 18.4° C Dunst
Fr, 19.08. 3:10 18.2° C Nebel
Fr, 19.08. 3:00 18.5° C Nebel
Fr, 19.08. 2:30 19.0° C bewölkt
Fr, 19.08. 2:00 19.4° C bedeckt
Fr, 19.08. 1:30 19.5° C bedeckt
Fr, 19.08. 1:00 19.4° C bedeckt
Ortszeit Relative Feuchte Sichtweite
Fr, 19.08. 2:00 98% 3.8 km
Do, 18.08. 20:00 72% 35 km
Do, 18.08. 14:00 55% 35 km
Do, 18.08. 8:00 86% 30 km
Do, 18.08. 2:00 95% 18 km
Mi, 17.08. 20:00 74% 40 km
Mi, 17.08. 14:00 54% 40 km
Mi, 17.08. 8:00 80% 40 km
Ortszeit Relative Feuchte Sichtweite
Fr, 19.08. 4:00 98% 6 km
Fr, 19.08. 3:50 98% -
Fr, 19.08. 3:40 98% -
Fr, 19.08. 3:30 98% 4.6 km
Fr, 19.08. 3:20 98% -
Fr, 19.08. 3:10 98% -
Fr, 19.08. 3:00 98% 2.3 km
Fr, 19.08. 2:30 98% 3.2 km
Fr, 19.08. 2:00 98% 3.8 km
Fr, 19.08. 1:30 98% 8 km
Fr, 19.08. 1:00 98% 4.8 km
Ortszeit Niederschlagsmenge Niederschlagsart
Fr, 19.08. 2:00 10 l/m2 in 6 Std. Regen, Niederschlag
Do, 18.08. 20:00 0.0 l/m2 in 12 Std. -
Do, 18.08. 14:00 0.0 l/m2 in 3 Std. -
Do, 18.08. 8:00 0.0 l/m2 in 12 Std. -
Do, 18.08. 2:00 0.0 l/m2 in 6 Std. -
Mi, 17.08. 20:00 0.0 l/m2 in 12 Std. -
Mi, 17.08. 14:00 0.0 l/m2 in 6 Std. -
Mi, 17.08. 8:00 0.0 l/m2 in 12 Std. -
Ortszeit Niederschlagsmenge Niederschlagsart
Fr, 19.08. 4:00 0.0 l/m2 in 1 Std. -
Fr, 19.08. 3:50 keine Meldung -
Fr, 19.08. 3:40 keine Meldung -
Fr, 19.08. 3:30 0.0 l/m2 in 1 Std. -
Fr, 19.08. 3:20 keine Meldung -
Fr, 19.08. 3:10 keine Meldung -
Fr, 19.08. 3:00 0.0 l/m2 in 1 Std. -
Fr, 19.08. 2:30 0.0 l/m2 in 1 Std. -
Fr, 19.08. 2:00 0.0 l/m2 in 1 Std. Regen, Niederschlag
Fr, 19.08. 1:30 0.0 l/m2 in 1 Std. -
Fr, 19.08. 1:00 0.0 l/m2 in 1 Std. -
Ortszeit Stärke Spitze Richtung
km/h Bft. km/h Grad Sektor
Fr, 19.08. 2:00 2 1 43 110° O
Do, 18.08. 20:00 6 1 24 120° SO
Do, 18.08. 14:00 13 3 30 130° SO
Do, 18.08. 8:00 11 2 22 60° NO
Do, 18.08. 2:00 6 1 11 90° O
Mi, 17.08. 20:00 7 2 22 50° NO
Mi, 17.08. 14:00 11 2 22 60° NO
Mi, 17.08. 8:00 0 0 7 - -
Ortszeit Stärke Spitze Richtung
km/h Bft. km/h Grad Sektor
Fr, 19.08. 4:00 4 1 11 290° W
Fr, 19.08. 3:50 4 1 - 290° W
Fr, 19.08. 3:40 4 1 - 290° W
Fr, 19.08. 3:30 7 2 11 320° NW
Fr, 19.08. 3:20 7 2 - 320° NW
Fr, 19.08. 3:10 4 1 - 330° NW
Fr, 19.08. 3:00 4 1 7 340° N
Fr, 19.08. 2:30 2 1 6 210° SW
Fr, 19.08. 2:00 2 1 7 110° O
Fr, 19.08. 1:30 4 1 7 270° W
Fr, 19.08. 1:00 7 2 11 240° SW
Ortszeit Untergrenze Bedeckung Gattung
total tief tief mittel hoch
Fr, 19.08. 2:00 4200 m 8/8 8/8 - - -
Do, 18.08. 20:00 2700 m 7/8 6/8 - - -
Do, 18.08. 14:00 7200 m 8/8 0/8 - - -
Do, 18.08. 8:00 3600 m 8/8 3/8 - - -
Do, 18.08. 2:00 - 0/8 0/8 - - -
Mi, 17.08. 20:00 8400 m 8/8 0/8 - - -
Mi, 17.08. 14:00 8700 m 8/8 0/8 - - -
Mi, 17.08. 8:00 - 0/8 0/8 - - -
Ortszeit Bedeckungsgrad in Achtel und Wolkenuntergrenze
Fr, 19.08. 4:00 6(6600m) 8(9000m)
Fr, 19.08. 3:50 6(6600m) 8(9000m)
Fr, 19.08. 3:40 8
Fr, 19.08. 3:30 4(6900m) 8(9000m)
Fr, 19.08. 3:20 4(6900m) 8(9000m)
Fr, 19.08. 3:10 8
Fr, 19.08. 3:00 8(9000m)
Fr, 19.08. 2:30 5(4200m) 8(9000m)
Fr, 19.08. 2:00 8(4200m) 8(8700m) 8(10500m)
Fr, 19.08. 1:30 8(4200m) 8(8700m)
Fr, 19.08. 1:00 7(4200m) 8(6900m) 8(9000m)
Ortszeit Luftdruck NN (hPa) Tendenz (hPa in 3 Std.)
Fr, 19.08. 2:00 1011 - 1,2
Do, 18.08. 20:00 1010 0,0
Do, 18.08. 14:00 1011 - 0,7
Do, 18.08. 8:00 1012 - 0,1
Do, 18.08. 2:00 1013 - 0,4
Mi, 17.08. 20:00 1013 0,0
Mi, 17.08. 14:00 1013 + 0,2
Mi, 17.08. 8:00 1012 + 0,8
Ortszeit Luftdruck NN (hPa) Tendenz (hPa in 3 Std.)
Fr, 19.08. 4:00 1011 + 0,1
Fr, 19.08. 3:50 1011 keine Meldung
Fr, 19.08. 3:40 1011 keine Meldung
Fr, 19.08. 3:30 1011 - 0,3
Fr, 19.08. 3:20 1011 keine Meldung
Fr, 19.08. 3:10 1011 keine Meldung
Fr, 19.08. 3:00 1011 - 0,6
Fr, 19.08. 2:30 1011 - 1,1
Fr, 19.08. 2:00 1011 - 1,2
Fr, 19.08. 1:30 1011 - 1,3
Fr, 19.08. 1:00 1011 - 0,7
Ortszeit Schneehöhe (cm)
Fr, 19.08. 2:00 0
Do, 18.08. 20:00 0
Do, 18.08. 14:00 0
Do, 18.08. 8:00 0
Do, 18.08. 2:00 0
Mi, 17.08. 20:00 0
Mi, 17.08. 14:00 0
Mi, 17.08. 8:00 0
Ortszeit Schneehöhe (cm)
Fr, 19.08. 4:00 0
Fr, 19.08. 3:50 0
Fr, 19.08. 3:40 0
Fr, 19.08. 3:30 0
Fr, 19.08. 3:20 0
Fr, 19.08. 3:10 0
Fr, 19.08. 3:00 0
Fr, 19.08. 2:30 0
Fr, 19.08. 2:00 0
Fr, 19.08. 1:30 0
Fr, 19.08. 1:00 0
Link zu dieser Seite / Seite empfehlen

Das Wetter in ...